createdAt,value
2023-04-23T00:00:24.825Z,47.11
2023-04-23T00:02:53.518Z,47.39
2023-04-23T00:05:23.461Z,47.07
2023-04-23T00:07:52.480Z,47.38
2023-04-23T00:10:19.276Z,48.03
2023-04-23T00:12:46.075Z,47.80
2023-04-23T00:15:13.948Z,48.47
2023-04-23T00:17:40.592Z,47.85
2023-04-23T00:20:12.821Z,47.89
2023-04-23T00:22:39.453Z,47.73
2023-04-23T00:25:06.932Z,47.53
2023-04-23T00:27:33.461Z,47.31
2023-04-23T00:30:00.495Z,47.44
2023-04-23T00:32:29.878Z,47.97
2023-04-23T00:34:56.731Z,47.64
2023-04-23T00:37:26.039Z,48.18
2023-04-23T00:39:52.671Z,47.92
2023-04-23T00:42:19.321Z,48.38
2023-04-23T00:44:45.906Z,48.19
2023-04-23T00:47:17.940Z,48.14
2023-04-23T00:49:47.413Z,48.47
2023-04-23T00:52:13.940Z,48.39
2023-04-23T00:54:40.951Z,48.78
2023-04-23T00:57:08.381Z,48.49
2023-04-23T00:59:36.665Z,48.25
2023-04-23T01:02:05.922Z,48.38
2023-04-23T01:04:32.999Z,48.44
2023-04-23T01:06:59.675Z,48.50
2023-04-23T01:09:29.003Z,48.69
2023-04-23T01:11:55.815Z,48.88
2023-04-23T01:14:22.484Z,48.95
2023-04-23T01:16:49.462Z,48.90
2023-04-23T01:19:16.199Z,49.25
2023-04-23T01:21:43.163Z,49.39
2023-04-23T01:24:12.744Z,49.32
2023-04-23T01:26:39.742Z,49.54
2023-04-23T01:29:06.371Z,49.69
2023-04-23T01:31:32.998Z,49.71
2023-04-23T01:33:59.558Z,50.09
2023-04-23T01:36:27.494Z,50.16
2023-04-23T01:38:54.128Z,49.63
2023-04-23T01:41:21.176Z,49.68
2023-04-23T01:43:50.351Z,50.10
2023-04-23T01:46:17.602Z,49.70
2023-04-23T01:48:49.646Z,49.80
2023-04-23T01:51:18.751Z,49.41
2023-04-23T01:53:48.113Z,49.47
2023-04-23T01:56:17.183Z,49.90
2023-04-23T01:58:47.096Z,50.06
2023-04-23T02:01:13.857Z,50.54
2023-04-23T02:03:40.878Z,50.58
2023-04-23T02:06:08.062Z,50.79
2023-04-23T02:08:37.170Z,50.37
2023-04-23T02:11:03.789Z,50.31
2023-04-23T02:13:30.598Z,50.28
2023-04-23T02:15:57.271Z,50.81
2023-04-23T02:18:26.554Z,50.62
2023-04-23T02:20:53.879Z,50.15
2023-04-23T02:23:22.883Z,50.22
2023-04-23T02:25:49.525Z,50.73
2023-04-23T02:28:21.073Z,50.52
2023-04-23T02:30:52.237Z,50.67
2023-04-23T02:33:19.803Z,50.39
2023-04-23T02:35:46.780Z,50.70
2023-04-23T02:38:13.388Z,50.79
2023-04-23T02:40:40.137Z,51.45
2023-04-23T02:43:09.491Z,51.66
2023-04-23T02:45:38.252Z,52.23
2023-04-23T02:48:04.919Z,52.20
2023-04-23T02:50:31.551Z,52.25
2023-04-23T02:52:58.145Z,52.16
2023-04-23T02:55:29.861Z,51.92
2023-04-23T02:57:56.708Z,52.16
2023-04-23T03:00:28.404Z,52.43
2023-04-23T03:02:57.750Z,52.41
2023-04-23T03:05:24.541Z,52.26
2023-04-23T03:07:51.238Z,52.68
2023-04-23T03:10:17.967Z,52.51
2023-04-23T03:12:47.011Z,52.37
2023-04-23T03:15:14.732Z,52.28
2023-04-23T03:17:46.485Z,52.07
2023-04-23T03:20:14.653Z,52.22
2023-04-23T03:22:44.212Z,52.32
2023-04-23T03:25:20.630Z,52.43
2023-04-23T03:27:50.543Z,52.18
2023-04-23T03:30:17.455Z,52.47
2023-04-23T03:32:46.440Z,52.44
2023-04-23T03:35:15.378Z,52.56
2023-04-23T03:37:47.041Z,52.60
2023-04-23T03:40:14.970Z,52.78
2023-04-23T03:42:43.587Z,52.78
2023-04-23T03:45:13.848Z,52.58
2023-04-23T03:47:40.735Z,52.57
2023-04-23T03:50:09.114Z,52.10
2023-04-23T03:52:36.475Z,51.72
2023-04-23T03:55:03.828Z,51.71
2023-04-23T03:57:36.249Z,51.57
2023-04-23T04:00:33.902Z,52.12
2023-04-23T04:03:02.370Z,52.46
2023-04-23T04:05:31.168Z,52.77
2023-04-23T04:08:02.240Z,52.76
2023-04-23T04:10:32.568Z,52.77
2023-04-23T04:12:59.189Z,52.75
2023-04-23T04:15:27.623Z,52.73
2023-04-23T04:17:54.633Z,53.17
2023-04-23T04:20:23.730Z,52.78
2023-04-23T04:22:52.506Z,53.02
2023-04-23T04:25:19.105Z,52.81
2023-04-23T04:27:46.175Z,53.31
2023-04-23T04:30:12.959Z,52.82
2023-04-23T04:32:40.613Z,52.64
2023-04-23T04:35:09.914Z,53.03
2023-04-23T04:37:36.568Z,53.58
2023-04-23T04:40:05.305Z,53.28
2023-04-23T04:42:39.584Z,54.06
2023-04-23T04:45:10.145Z,53.07
2023-04-23T04:47:39.175Z,53.26
2023-04-23T04:50:08.171Z,53.07
2023-04-23T04:52:35.742Z,52.90
2023-04-23T04:55:04.622Z,52.83
2023-04-23T04:57:31.236Z,52.55
2023-04-23T05:00:02.580Z,52.58
2023-04-23T05:02:31.663Z,52.62
2023-04-23T05:04:58.540Z,52.96
2023-04-23T05:07:25.263Z,52.83
2023-04-23T05:09:54.186Z,52.78
2023-04-23T05:12:23.275Z,52.86
2023-04-23T05:14:51.276Z,53.48
2023-04-23T05:17:21.397Z,53.08
2023-04-23T05:19:51.231Z,53.08
2023-04-23T05:22:21.164Z,52.81
2023-04-23T05:24:48.136Z,52.93
2023-04-23T05:27:17.623Z,53.11
2023-04-23T05:29:46.449Z,54.10
2023-04-23T05:32:14.003Z,53.61
2023-04-23T05:34:42.570Z,53.09
2023-04-23T05:41:02.788Z,53.28
2023-04-23T05:43:33.042Z,53.63
2023-04-23T05:45:59.644Z,53.74
2023-04-23T05:48:26.741Z,53.26
2023-04-23T05:50:53.604Z,53.42
2023-04-23T05:53:29.219Z,53.81
2023-04-23T05:56:05.083Z,54.38
2023-04-23T05:58:38.951Z,53.44
2023-04-23T06:01:15.779Z,53.03
2023-04-23T06:03:45.732Z,52.68
2023-04-23T06:06:15.244Z,52.23
2023-04-23T06:08:59.316Z,51.27
2023-04-23T06:11:28.441Z,50.88
2023-04-23T06:13:56.954Z,50.68
2023-04-23T06:16:24.190Z,51.02
2023-04-23T06:18:50.936Z,51.50
2023-04-23T06:21:20.671Z,51.96
2023-04-23T06:23:47.270Z,51.45
2023-04-23T06:26:13.863Z,51.27
2023-04-23T06:28:42.128Z,51.04
2023-04-23T06:31:24.664Z,50.28
2023-04-23T06:33:56.380Z,50.07
2023-04-23T06:36:23.604Z,49.67
2023-04-23T06:38:52.489Z,48.53
2023-04-23T06:41:19.182Z,48.24
2023-04-23T06:43:46.415Z,48.26
2023-04-23T06:46:23.710Z,48.08
2023-04-23T06:48:50.325Z,48.28
2023-04-23T06:51:19.565Z,48.34
2023-04-23T06:53:48.456Z,48.29
2023-04-23T06:56:17.558Z,48.52
2023-04-23T06:58:49.676Z,48.08
2023-04-23T07:01:23.386Z,47.96
2023-04-23T07:03:51.806Z,47.75
2023-04-23T07:06:21.422Z,48.01
2023-04-23T07:08:48.723Z,47.16
2023-04-23T07:11:15.498Z,47.07
2023-04-23T07:13:46.972Z,46.91
2023-04-23T07:16:13.734Z,46.60
2023-04-23T07:18:42.877Z,46.65
2023-04-23T07:21:11.596Z,46.21
2023-04-23T07:23:40.521Z,45.77
2023-04-23T07:26:09.724Z,45.68
2023-04-23T07:28:38.786Z,44.88
2023-04-23T07:31:05.445Z,45.17
2023-04-23T07:33:32.039Z,45.14
2023-04-23T07:36:01.192Z,44.16
2023-04-23T07:38:27.800Z,44.60
2023-04-23T07:40:54.431Z,44.70
2023-04-23T07:43:21.695Z,44.62
2023-04-23T07:45:48.758Z,44.01
2023-04-23T07:48:19.058Z,43.60
2023-04-23T07:50:48.668Z,43.77
2023-04-23T07:53:17.703Z,43.04
2023-04-23T07:55:46.837Z,42.13
2023-04-23T07:58:18.585Z,41.21
2023-04-23T08:00:48.483Z,40.73
2023-04-23T08:03:15.244Z,39.65
2023-04-23T08:05:42.007Z,40.19
2023-04-23T08:08:12.062Z,35.17
2023-04-23T08:10:41.444Z,34.82
2023-04-23T08:13:08.269Z,35.01
2023-04-23T08:15:34.883Z,35.03
2023-04-23T08:18:04.496Z,34.43
2023-04-23T08:20:32.531Z,34.74
2023-04-23T08:22:59.328Z,33.72
2023-04-23T08:25:26.015Z,33.82
2023-04-23T08:27:57.604Z,34.63
2023-04-23T08:30:24.324Z,34.23
2023-04-23T08:32:53.777Z,33.06
2023-04-23T08:35:20.740Z,33.21
2023-04-23T08:37:49.876Z,33.44
2023-04-23T08:40:17.079Z,31.40
2023-04-23T08:42:51.010Z,31.72
2023-04-23T08:45:18.081Z,30.75
2023-04-23T08:47:47.511Z,32.08
2023-04-23T08:50:20.936Z,32.58
2023-04-23T08:52:48.382Z,32.77
2023-04-23T08:55:15.943Z,30.82
2023-04-23T08:57:45.486Z,30.13
2023-04-23T09:00:12.550Z,31.80
2023-04-23T09:02:46.576Z,29.84
2023-04-23T09:05:13.695Z,30.35
2023-04-23T09:07:43.000Z,32.16
2023-04-23T09:10:12.997Z,31.55
2023-04-23T09:12:41.462Z,30.99
2023-04-23T09:15:14.131Z,31.86
2023-04-23T09:17:47.210Z,30.92
2023-04-23T09:20:18.835Z,31.26
2023-04-23T09:22:47.990Z,30.91
2023-04-23T09:25:22.465Z,30.81
2023-04-23T09:27:52.373Z,29.15
2023-04-23T09:30:19.642Z,29.14
2023-04-23T09:32:46.791Z,29.72
2023-04-23T09:35:15.091Z,30.41
2023-04-23T09:37:51.000Z,30.22
2023-04-23T09:40:18.386Z,29.98
2023-04-23T09:42:49.950Z,28.40
2023-04-23T09:45:22.042Z,29.60
2023-04-23T09:47:52.255Z,29.15
2023-04-23T09:50:39.605Z,28.53
2023-04-23T09:53:07.235Z,27.34
2023-04-23T09:55:39.122Z,28.53
2023-04-23T09:58:07.354Z,28.13
2023-04-23T10:00:35.069Z,28.27
2023-04-23T10:03:02.036Z,27.24
2023-04-23T10:05:45.287Z,26.30
2023-04-23T10:08:20.794Z,27.94
2023-04-23T10:11:00.081Z,27.51
2023-04-23T10:13:36.410Z,26.52
2023-04-23T10:16:20.735Z,26.77
2023-04-23T10:18:49.250Z,26.12
2023-04-23T10:21:16.344Z,25.99
2023-04-23T10:23:43.161Z,26.65
2023-04-23T10:26:09.898Z,24.02
2023-04-23T10:28:36.622Z,24.79
2023-04-23T10:31:04.092Z,26.07
2023-04-23T10:33:42.690Z,26.24
2023-04-23T10:36:17.324Z,25.68
2023-04-23T10:38:56.748Z,23.91
2023-04-23T10:41:25.008Z,23.98
2023-04-23T10:43:54.136Z,25.07
2023-04-23T10:46:30.748Z,24.36
2023-04-23T10:49:08.967Z,24.62
2023-04-23T10:54:06.200Z,23.96
2023-04-23T10:56:33.282Z,23.60
2023-04-23T10:58:59.891Z,23.05
2023-04-23T11:01:32.070Z,21.96
2023-04-23T11:03:59.773Z,23.43
2023-04-23T11:06:45.435Z,22.81
2023-04-23T11:09:30.966Z,22.94
2023-04-23T11:11:58.199Z,22.38
2023-04-23T11:14:36.387Z,22.43
2023-04-23T11:17:09.088Z,21.50
2023-04-23T11:19:38.909Z,21.16
2023-04-23T11:22:08.157Z,22.47
2023-04-23T11:24:36.837Z,22.75
2023-04-23T11:27:05.537Z,22.57
2023-04-23T11:29:32.188Z,23.38
2023-04-23T11:32:02.927Z,21.52
2023-04-23T11:34:30.568Z,20.85
2023-04-23T11:36:58.707Z,20.78
2023-04-23T11:39:28.535Z,21.36
2023-04-23T11:41:55.280Z,21.75
2023-04-23T11:44:22.072Z,21.65
2023-04-23T11:46:51.596Z,19.83
2023-04-23T11:49:21.804Z,21.70
2023-04-23T11:51:48.408Z,19.64
2023-04-23T11:54:15.120Z,20.31
2023-04-23T11:56:42.164Z,19.24
2023-04-23T11:59:11.199Z,20.75
2023-04-23T12:01:42.689Z,19.80
2023-04-23T12:04:10.990Z,19.64
2023-04-23T12:06:38.143Z,20.88
2023-04-23T12:09:05.136Z,21.15
2023-04-23T12:11:31.688Z,21.02
2023-04-23T12:14:00.765Z,20.40
2023-04-23T12:16:34.243Z,20.78
2023-04-23T12:19:01.217Z,21.56
2023-04-23T12:21:30.688Z,18.95
2023-04-23T12:23:58.331Z,20.06
2023-04-23T12:26:25.695Z,20.03
2023-04-23T12:28:53.014Z,19.82
2023-04-23T12:31:24.032Z,19.63
2023-04-23T12:34:05.728Z,18.88
2023-04-23T12:36:35.677Z,18.47
2023-04-23T12:39:24.185Z,18.09
2023-04-23T12:41:55.048Z,17.14
2023-04-23T12:44:23.880Z,16.92
2023-04-23T12:46:57.826Z,16.03
2023-04-23T12:49:29.796Z,17.29
2023-04-23T12:52:05.724Z,16.84
2023-04-23T12:54:37.983Z,16.96
2023-04-23T12:57:27.014Z,17.16
2023-04-23T12:59:55.090Z,16.60
2023-04-23T13:02:24.269Z,15.89
2023-04-23T13:04:59.691Z,15.70
2023-04-23T13:07:31.180Z,15.30
2023-04-23T13:10:07.697Z,15.27
2023-04-23T13:12:37.881Z,15.32
2023-04-23T13:15:12.171Z,15.38
2023-04-23T13:17:41.410Z,14.54
2023-04-23T13:20:10.462Z,15.57
2023-04-23T13:22:37.218Z,14.60
2023-04-23T13:25:06.214Z,14.30
2023-04-23T13:27:40.740Z,13.86
2023-04-23T13:30:23.151Z,13.33
2023-04-23T13:33:04.604Z,13.00
2023-04-23T13:35:55.934Z,13.72
2023-04-23T13:38:56.155Z,14.18
2023-04-23T13:42:14.629Z,13.79
2023-04-23T13:46:06.818Z,13.63
2023-04-23T13:48:38.761Z,13.07
2023-04-23T14:00:23.672Z,11.78
2023-04-23T14:06:00.388Z,12.44
2023-04-23T14:08:43.253Z,11.96
2023-04-23T14:11:47.569Z,11.89
2023-04-23T14:14:51.092Z,11.23
2023-04-23T14:17:52.457Z,12.06
2023-04-23T14:20:56.849Z,12.21
2023-04-23T14:23:53.416Z,12.97
2023-04-23T14:29:41.189Z,13.45
2023-04-23T14:32:13.433Z,13.59
2023-04-23T14:34:40.002Z,13.88
2023-04-23T14:37:06.846Z,13.07
2023-04-23T14:39:33.881Z,12.85
2023-04-23T14:42:03.718Z,13.29
2023-04-23T14:44:32.648Z,13.13
2023-04-23T14:46:59.411Z,12.98
2023-04-23T14:49:28.376Z,11.99
2023-04-23T14:51:55.065Z,12.42
2023-04-23T14:54:38.206Z,12.18
2023-04-23T14:57:07.297Z,13.97
2023-04-23T14:59:33.943Z,13.65
2023-04-23T15:02:01.459Z,13.47
2023-04-23T15:04:28.298Z,13.98
2023-04-23T15:06:55.065Z,13.38
2023-04-23T15:09:29.410Z,12.70
2023-04-23T15:11:58.414Z,13.44
2023-04-23T15:14:28.657Z,13.78
2023-04-23T15:16:55.352Z,13.15
2023-04-23T15:19:26.820Z,12.89
2023-04-23T15:21:56.342Z,12.87
2023-04-23T15:24:22.939Z,13.51
2023-04-23T15:26:49.701Z,13.38
2023-04-23T15:29:16.546Z,13.04
2023-04-23T15:31:47.965Z,14.59
2023-04-23T15:34:14.656Z,14.87
2023-04-23T15:36:41.257Z,14.80
2023-04-23T15:39:08.248Z,15.37
2023-04-23T15:41:40.793Z,15.81
2023-04-23T15:44:12.251Z,15.84
2023-04-23T15:46:39.097Z,16.12
2023-04-23T15:49:06.040Z,16.39
2023-04-23T15:51:33.061Z,16.70
2023-04-23T15:54:02.734Z,17.19
2023-04-23T15:56:29.338Z,17.02
2023-04-23T15:58:55.942Z,17.78
2023-04-23T16:01:24.208Z,17.88
2023-04-23T16:04:08.520Z,17.82
2023-04-23T16:06:36.671Z,18.79
2023-04-23T16:09:06.919Z,18.85
2023-04-23T16:11:39.062Z,19.17
2023-04-23T16:14:05.796Z,19.01
2023-04-23T16:16:32.631Z,19.34
2023-04-23T16:19:04.712Z,19.40
2023-04-23T16:21:33.510Z,19.53
2023-04-23T16:24:00.517Z,19.32
2023-04-23T16:26:29.497Z,19.87
2023-04-23T16:29:16.848Z,20.06
2023-04-23T16:31:43.166Z,19.90
2023-04-23T16:34:10.314Z,19.56
2023-04-23T16:36:36.989Z,19.63
2023-04-23T16:39:04.422Z,19.30
2023-04-23T16:41:31.696Z,19.80
2023-04-23T16:43:58.321Z,20.27
2023-04-23T16:46:26.720Z,20.35
2023-04-23T16:48:53.747Z,20.42
2023-04-23T16:51:20.422Z,20.73
2023-04-23T16:53:47.025Z,20.35
2023-04-23T16:56:13.722Z,20.85
2023-04-23T16:58:40.506Z,21.63
2023-04-23T17:01:07.042Z,21.04
2023-04-23T17:03:34.006Z,20.88
2023-04-23T17:06:09.230Z,21.14
2023-04-23T17:08:37.451Z,22.04
2023-04-23T17:11:05.304Z,22.14
2023-04-23T17:13:32.685Z,22.52
2023-04-23T17:16:01.916Z,22.29
2023-04-23T17:18:28.664Z,22.31
2023-04-23T17:20:55.565Z,22.09
2023-04-23T17:23:24.668Z,22.61
2023-04-23T17:25:51.426Z,22.82
2023-04-23T17:28:21.116Z,22.92
2023-04-23T17:30:50.708Z,23.36
2023-04-23T17:33:17.977Z,23.63
2023-04-23T17:35:46.922Z,23.66
2023-04-23T17:38:20.711Z,23.54
2023-04-23T17:40:47.881Z,23.60
2023-04-23T17:43:17.132Z,23.93
2023-04-23T17:45:47.628Z,24.12
2023-04-23T17:48:14.795Z,24.63
2023-04-23T17:50:41.822Z,24.68
2023-04-23T17:53:08.424Z,25.08
2023-04-23T17:55:37.354Z,25.16
2023-04-23T17:58:07.683Z,25.41
2023-04-23T18:00:42.204Z,25.27
2023-04-23T18:03:09.521Z,25.38
2023-04-23T18:05:38.700Z,25.76
2023-04-23T18:08:06.946Z,26.14
2023-04-23T18:10:36.036Z,25.71
2023-04-23T18:13:09.098Z,25.38
2023-04-23T18:15:35.766Z,26.33
2023-04-23T18:18:02.496Z,25.83
2023-04-23T18:20:30.305Z,25.53
2023-04-23T18:22:56.837Z,25.96
2023-04-23T18:25:25.274Z,26.25
2023-04-23T18:27:51.985Z,25.96
2023-04-23T18:30:23.190Z,26.34
2023-04-23T18:32:52.380Z,26.41
2023-04-23T18:35:19.432Z,26.63
2023-04-23T18:37:52.759Z,26.80
2023-04-23T18:40:21.875Z,26.74
2023-04-23T18:42:53.216Z,27.00
2023-04-23T18:45:19.846Z,27.19
2023-04-23T18:48:12.997Z,27.51
2023-04-23T18:50:43.656Z,27.59
2023-04-23T18:53:10.349Z,28.12
2023-04-23T18:55:37.176Z,28.22
2023-04-23T18:58:04.600Z,28.00
2023-04-23T19:00:31.527Z,28.05
2023-04-23T19:03:06.506Z,28.09
2023-04-23T19:05:38.573Z,28.08
2023-04-23T19:08:07.666Z,28.03
2023-04-23T19:10:39.138Z,28.19
2023-04-23T19:13:06.157Z,28.75
2023-04-23T19:15:32.692Z,28.41
2023-04-23T19:17:59.365Z,28.64
2023-04-23T19:20:26.076Z,28.81
2023-04-23T19:22:52.674Z,28.88
2023-04-23T19:25:19.267Z,28.92
2023-04-23T19:27:48.226Z,29.68
2023-04-23T19:30:15.038Z,29.71
2023-04-23T19:32:41.726Z,29.36
2023-04-23T19:35:08.479Z,29.96
2023-04-23T19:37:36.132Z,29.52
2023-04-23T19:40:02.842Z,29.52
2023-04-23T19:42:31.406Z,30.28
2023-04-23T19:45:00.394Z,30.42
2023-04-23T19:47:29.830Z,29.96
2023-04-23T19:49:56.661Z,29.59
2023-04-23T19:52:24.035Z,30.31
2023-04-23T19:54:50.681Z,30.42
2023-04-23T19:57:19.873Z,30.50
2023-04-23T19:59:46.586Z,30.46
2023-04-23T20:02:13.391Z,30.38
2023-04-23T20:04:42.419Z,30.41
2023-04-23T20:07:09.099Z,30.67
2023-04-23T20:09:36.404Z,30.35
2023-04-23T20:12:03.014Z,30.42
2023-04-23T20:14:29.925Z,30.80
2023-04-23T20:16:56.920Z,30.91
2023-04-23T20:19:25.946Z,30.90
2023-04-23T20:21:55.146Z,31.24
2023-04-23T20:24:24.075Z,31.40
2023-04-23T20:26:50.969Z,31.41
2023-04-23T20:29:17.628Z,31.55
2023-04-23T20:31:48.831Z,31.64
2023-04-23T20:34:16.476Z,31.31
2023-04-23T20:36:47.262Z,31.69
2023-04-23T20:39:14.055Z,31.51
2023-04-23T20:41:43.187Z,31.84
2023-04-23T20:44:12.191Z,31.87
2023-04-23T20:46:38.829Z,32.13
2023-04-23T20:49:05.605Z,32.65
2023-04-23T20:51:35.113Z,32.14
2023-04-23T20:54:02.158Z,32.50
2023-04-23T20:56:29.121Z,32.03
2023-04-23T20:58:57.656Z,32.36
2023-04-23T21:01:24.976Z,32.22
2023-04-23T21:03:54.467Z,32.71
2023-04-23T21:06:23.932Z,32.95
2023-04-23T21:08:50.518Z,34.85
2023-04-23T21:11:20.473Z,36.42
2023-04-23T21:13:47.512Z,36.73
2023-04-23T21:16:14.396Z,36.69
2023-04-23T21:18:41.091Z,37.22
2023-04-23T21:21:08.279Z,37.52
2023-04-23T21:23:35.176Z,36.99
2023-04-23T21:26:01.730Z,37.42
2023-04-23T21:28:33.823Z,38.17
2023-04-23T21:31:06.091Z,37.80
2023-04-23T21:33:35.652Z,37.84
2023-04-23T21:36:07.237Z,37.89
2023-04-23T21:38:33.805Z,38.85
2023-04-23T21:41:01.289Z,37.50
2023-04-23T21:43:28.735Z,38.24
2023-04-23T21:45:55.360Z,37.27
2023-04-23T21:48:23.166Z,38.45
2023-04-23T21:50:55.258Z,38.82
2023-04-23T21:53:22.566Z,38.60
2023-04-23T21:55:49.134Z,38.60
2023-04-23T21:58:18.354Z,37.59
2023-04-23T22:00:45.514Z,38.70
2023-04-23T22:03:12.756Z,39.30
2023-04-23T22:05:48.274Z,38.46
2023-04-23T22:08:16.544Z,38.23
2023-04-23T22:10:43.416Z,39.17
2023-04-23T22:13:11.194Z,39.43
2023-04-23T22:15:38.455Z,40.07
2023-04-23T22:18:07.642Z,39.76
2023-04-23T22:20:37.983Z,40.19
2023-04-23T22:23:04.692Z,40.11
2023-04-23T22:25:33.673Z,40.79
2023-04-23T22:28:00.279Z,39.33
2023-04-23T22:30:26.903Z,41.26
2023-04-23T22:32:54.021Z,41.41
2023-04-23T22:35:20.682Z,41.45
2023-04-23T22:37:47.648Z,41.45
2023-04-23T22:40:14.276Z,42.13
2023-04-23T22:42:40.920Z,42.01
2023-04-23T22:45:08.498Z,42.21
2023-04-23T22:47:35.485Z,42.14
2023-04-23T22:50:06.615Z,42.55
2023-04-23T22:52:33.295Z,42.84
2023-04-23T22:55:00.496Z,42.54
2023-04-23T22:57:30.611Z,42.25
2023-04-23T22:59:59.599Z,42.31
2023-04-23T23:02:26.924Z,42.17
2023-04-23T23:04:56.073Z,42.24
2023-04-23T23:07:22.778Z,41.81
2023-04-23T23:09:52.354Z,41.85
2023-04-23T23:12:19.049Z,41.69
2023-04-23T23:14:45.829Z,41.74
2023-04-23T23:17:14.789Z,41.76
2023-04-23T23:19:42.664Z,42.46
2023-04-23T23:22:09.573Z,41.83
2023-04-23T23:24:39.286Z,42.23
2023-04-23T23:27:08.063Z,42.14
2023-04-23T23:29:34.712Z,42.53
2023-04-23T23:32:01.346Z,42.19
2023-04-23T23:34:27.915Z,42.48
2023-04-23T23:36:54.568Z,42.60
2023-04-23T23:39:21.544Z,41.98
2023-04-23T23:41:50.843Z,41.79
2023-04-23T23:44:22.906Z,42.37
2023-04-23T23:46:49.621Z,42.31
2023-04-23T23:49:16.366Z,42.62
2023-04-23T23:51:44.103Z,43.19
2023-04-23T23:54:10.861Z,42.88
2023-04-23T23:56:37.576Z,43.18
2023-04-23T23:59:04.223Z,43.00
